createdAt,value
2023-05-08T00:00:20.576Z,90.98
2023-05-08T00:03:07.791Z,91.87
2023-05-08T00:05:34.687Z,92.22
2023-05-08T00:08:02.250Z,92.09
2023-05-08T00:10:29.402Z,91.45
2023-05-08T00:12:56.913Z,90.93
2023-05-08T00:15:23.901Z,90.79
2023-05-08T00:17:50.973Z,91.65
2023-05-08T00:20:17.831Z,91.38
2023-05-08T00:22:44.937Z,91.04
2023-05-08T00:25:11.733Z,91.17
2023-05-08T00:27:41.288Z,90.51
2023-05-08T00:30:10.085Z,89.64
2023-05-08T00:32:37.287Z,89.79
2023-05-08T00:35:05.552Z,90.60
2023-05-08T00:37:35.719Z,91.31
2023-05-08T00:40:02.560Z,91.39
2023-05-08T00:42:32.397Z,91.86
2023-05-08T00:44:59.254Z,91.82
2023-05-08T00:47:26.644Z,93.83
2023-05-08T00:49:57.732Z,92.94
2023-05-08T00:52:27.772Z,91.87
2023-05-08T00:54:55.428Z,92.42
2023-05-08T00:57:23.215Z,91.99
2023-05-08T00:59:54.918Z,94.06
2023-05-08T01:02:28.490Z,93.61
2023-05-08T01:04:56.559Z,93.88
2023-05-08T01:07:23.689Z,93.34
2023-05-08T01:09:50.466Z,93.63
2023-05-08T01:12:36.779Z,95.75
2023-05-08T01:15:14.505Z,94.98
2023-05-08T01:17:46.277Z,95.76
2023-05-08T01:20:24.844Z,96.12
2023-05-08T01:23:19.798Z,97.53
2023-05-08T01:26:08.077Z,97.27
2023-05-08T01:28:51.008Z,95.91
2023-05-08T01:31:29.048Z,97.59
2023-05-08T01:34:06.755Z,99.35
2023-05-08T01:37:08.557Z,98.82
2023-05-08T01:39:59.513Z,100.00
2023-05-08T01:42:49.467Z,100.00
2023-05-08T01:45:25.663Z,100.00
2023-05-08T01:48:05.012Z,99.65
2023-05-08T01:50:36.630Z,100.00
2023-05-08T01:53:10.842Z,99.93
2023-05-08T01:55:41.138Z,100.00
2023-05-08T01:58:11.812Z,100.00
2023-05-08T02:00:41.598Z,98.09
2023-05-08T02:03:11.079Z,98.07
2023-05-08T02:05:39.790Z,98.06
2023-05-08T02:08:11.360Z,98.34
2023-05-08T02:10:39.198Z,99.74
2023-05-08T02:13:08.336Z,97.64
2023-05-08T02:15:36.731Z,99.16
2023-05-08T02:18:09.288Z,97.61
2023-05-08T02:20:38.024Z,98.42
2023-05-08T02:23:06.506Z,98.24
2023-05-08T02:25:35.368Z,97.22
2023-05-08T02:28:03.544Z,99.27
2023-05-08T02:30:31.172Z,97.34
2023-05-08T02:33:01.810Z,97.75
2023-05-08T02:35:31.520Z,98.02
2023-05-08T02:38:00.484Z,98.51
2023-05-08T02:40:29.588Z,99.60
2023-05-08T02:42:57.089Z,100.00
2023-05-08T02:45:28.760Z,100.00
2023-05-08T02:48:12.166Z,99.71
2023-05-08T02:50:48.805Z,100.00
2023-05-08T02:53:31.696Z,99.87
2023-05-08T02:56:09.577Z,100.00
2023-05-08T02:59:11.972Z,100.00
2023-05-08T03:01:48.512Z,100.00
2023-05-08T03:04:34.992Z,100.00
2023-05-08T03:07:04.535Z,100.00
2023-05-08T03:09:44.259Z,100.00
2023-05-08T03:12:22.148Z,100.00
2023-05-08T03:15:18.994Z,100.00
2023-05-08T03:17:47.697Z,100.00
2023-05-08T03:20:18.433Z,100.00
2023-05-08T03:22:47.018Z,100.00
2023-05-08T03:25:17.083Z,100.00
2023-05-08T03:27:45.757Z,100.00
2023-05-08T03:30:14.342Z,100.00
2023-05-08T03:32:44.671Z,100.00
2023-05-08T03:35:14.617Z,100.00
2023-05-08T03:37:42.752Z,100.00
2023-05-08T03:40:10.566Z,100.00
2023-05-08T03:42:38.567Z,100.00
2023-05-08T03:45:07.159Z,100.00
2023-05-08T03:47:35.937Z,100.00
2023-05-08T03:50:03.382Z,96.75
2023-05-08T03:52:32.137Z,94.86
2023-05-08T03:54:59.433Z,95.66
2023-05-08T03:57:30.838Z,95.49
2023-05-08T04:00:06.068Z,93.62
2023-05-08T04:02:52.426Z,93.75
2023-05-08T04:05:38.603Z,93.15
2023-05-08T04:08:20.186Z,90.77
2023-05-08T04:10:54.400Z,90.71
2023-05-08T04:13:28.533Z,91.21
2023-05-08T04:16:07.306Z,86.80
2023-05-08T04:18:38.512Z,87.66
2023-05-08T04:21:11.473Z,87.75
2023-05-08T04:23:41.673Z,86.75
2023-05-08T04:26:10.693Z,87.88
2023-05-08T04:28:42.396Z,85.70
2023-05-08T04:31:10.383Z,85.84
2023-05-08T04:33:37.852Z,85.78
2023-05-08T04:36:05.344Z,83.24
2023-05-08T04:38:36.240Z,85.07
2023-05-08T04:41:03.446Z,84.68
2023-05-08T04:43:30.649Z,83.69
2023-05-08T04:45:57.770Z,83.50
2023-05-08T04:48:25.016Z,84.01
2023-05-08T04:50:52.059Z,83.01
2023-05-08T04:53:20.017Z,80.30
2023-05-08T04:55:47.067Z,79.52
2023-05-08T04:58:13.860Z,78.92
2023-05-08T05:00:40.990Z,79.55
2023-05-08T05:03:07.799Z,78.41
2023-05-08T05:05:38.927Z,79.14
2023-05-08T05:08:07.061Z,79.00
2023-05-08T05:10:34.149Z,79.04
2023-05-08T05:13:01.031Z,79.60
2023-05-08T05:15:35.149Z,79.57
2023-05-08T05:18:01.848Z,78.84
2023-05-08T05:20:29.122Z,79.07
2023-05-08T05:22:58.054Z,78.49
2023-05-08T05:25:25.090Z,78.89
2023-05-08T05:27:51.864Z,78.54
2023-05-08T05:30:19.034Z,77.06
2023-05-08T05:32:49.039Z,76.57
2023-05-08T05:35:18.820Z,77.26
2023-05-08T05:37:45.608Z,76.19
2023-05-08T05:40:16.231Z,75.36
2023-05-08T05:42:48.715Z,74.48
2023-05-08T05:45:18.742Z,74.86
2023-05-08T05:47:50.072Z,73.66
2023-05-08T05:50:18.699Z,73.13
2023-05-08T05:52:47.136Z,72.74
2023-05-08T05:55:14.519Z,73.16
2023-05-08T05:57:44.665Z,74.25
2023-05-08T06:00:15.290Z,73.80
2023-05-08T06:02:45.549Z,72.29
2023-05-08T06:05:15.586Z,73.52
2023-05-08T06:07:42.405Z,72.11
2023-05-08T06:10:13.336Z,73.06
2023-05-08T06:12:43.097Z,72.98
2023-05-08T06:15:11.374Z,74.19
2023-05-08T06:17:38.478Z,73.85
2023-05-08T06:20:07.197Z,73.41
2023-05-08T06:22:39.316Z,73.29
2023-05-08T06:25:09.706Z,73.04
2023-05-08T06:27:37.101Z,71.59
2023-05-08T06:30:07.835Z,70.94
2023-05-08T06:32:34.732Z,70.97
2023-05-08T06:35:01.996Z,69.66
2023-05-08T06:37:28.824Z,71.08
2023-05-08T06:40:10.218Z,69.63
2023-05-08T06:42:38.272Z,70.27
2023-05-08T06:45:07.465Z,69.24
2023-05-08T06:47:34.324Z,67.17
2023-05-08T06:50:01.655Z,67.28
2023-05-08T06:52:28.534Z,67.09
2023-05-08T06:54:55.727Z,65.05
2023-05-08T06:57:24.252Z,66.56
2023-05-08T06:59:51.304Z,63.75
2023-05-08T07:02:19.160Z,63.17
2023-05-08T07:04:49.239Z,63.19
2023-05-08T07:07:19.081Z,62.49
2023-05-08T07:09:46.198Z,63.61
2023-05-08T07:12:13.088Z,61.89
2023-05-08T07:14:44.321Z,63.92
2023-05-08T07:17:11.132Z,64.80
2023-05-08T07:19:38.839Z,64.51
2023-05-08T07:22:06.060Z,63.67
2023-05-08T07:24:33.648Z,61.63
2023-05-08T07:27:03.698Z,65.50
2023-05-08T07:29:33.509Z,65.30
2023-05-08T07:32:00.492Z,63.13
2023-05-08T07:34:28.105Z,64.55
2023-05-08T07:36:55.087Z,62.66
2023-05-08T07:39:22.609Z,66.58
2023-05-08T07:41:49.984Z,65.13
2023-05-08T07:44:17.178Z,65.05
2023-05-08T07:46:44.247Z,64.85
2023-05-08T07:49:11.371Z,65.74
2023-05-08T07:51:41.418Z,60.81
2023-05-08T07:54:11.297Z,65.05
2023-05-08T07:56:39.115Z,64.38
2023-05-08T07:59:06.273Z,65.18
2023-05-08T08:01:33.326Z,60.49
2023-05-08T08:04:01.033Z,62.57
2023-05-08T08:06:28.687Z,58.41
2023-05-08T08:09:03.106Z,62.82
2023-05-08T08:11:29.927Z,60.46
2023-05-08T08:13:57.169Z,59.67
2023-05-08T08:16:24.090Z,56.36
2023-05-08T08:18:52.954Z,58.81
2023-05-08T08:21:22.721Z,61.05
2023-05-08T08:23:49.787Z,58.69
2023-05-08T08:26:16.571Z,56.62
2023-05-08T08:28:43.863Z,58.67
2023-05-08T08:31:10.890Z,55.74
2023-05-08T08:33:37.991Z,56.87
2023-05-08T08:36:05.132Z,56.04
2023-05-08T08:38:32.297Z,54.00
2023-05-08T08:40:59.109Z,52.28
2023-05-08T08:43:26.865Z,50.24
2023-05-08T08:45:54.871Z,51.96
2023-05-08T08:48:28.433Z,51.64
2023-05-08T08:51:07.418Z,49.38
2023-05-08T08:53:44.315Z,49.21
2023-05-08T08:56:11.737Z,49.84
2023-05-08T08:58:53.854Z,48.40
2023-05-08T09:01:22.041Z,48.94
2023-05-08T09:03:50.088Z,47.19
2023-05-08T09:06:17.225Z,45.83
2023-05-08T09:08:47.557Z,45.88
2023-05-08T09:11:14.526Z,45.81
2023-05-08T09:13:41.643Z,44.53
2023-05-08T09:16:09.738Z,43.34
2023-05-08T09:18:36.878Z,44.24
2023-05-08T09:21:07.258Z,43.85
2023-05-08T09:23:37.285Z,44.26
2023-05-08T09:26:06.980Z,43.25
2023-05-08T09:28:34.325Z,43.43
2023-05-08T09:31:02.519Z,44.17
2023-05-08T09:33:32.967Z,41.96
2023-05-08T09:35:59.816Z,43.45
2023-05-08T09:38:40.560Z,42.33
2023-05-08T09:41:15.639Z,41.33
2023-05-08T09:43:44.718Z,42.43
2023-05-08T09:46:23.449Z,44.51
2023-05-08T09:48:52.576Z,41.11
2023-05-08T09:51:24.877Z,40.45
2023-05-08T09:53:56.021Z,41.49
2023-05-08T09:56:37.081Z,42.08
2023-05-08T09:59:06.650Z,41.76
2023-05-08T10:01:36.100Z,43.51
2023-05-08T10:04:05.787Z,42.29
2023-05-08T10:06:33.419Z,40.99
2023-05-08T10:09:16.095Z,42.25
2023-05-08T10:11:54.539Z,40.73
2023-05-08T10:14:24.861Z,40.97
2023-05-08T10:16:53.371Z,39.54
2023-05-08T10:19:27.619Z,38.71
2023-05-08T10:21:56.250Z,38.15
2023-05-08T10:24:33.945Z,39.31
2023-05-08T10:27:17.547Z,37.05
2023-05-08T10:29:51.384Z,41.18
2023-05-08T10:32:20.864Z,37.53
2023-05-08T10:35:03.304Z,37.63
2023-05-08T10:37:36.141Z,38.36
2023-05-08T10:40:06.939Z,36.36
2023-05-08T10:42:37.592Z,37.70
2023-05-08T10:45:08.937Z,37.64
2023-05-08T10:47:46.135Z,37.49
2023-05-08T10:50:50.723Z,36.91
2023-05-08T10:53:36.208Z,35.92
2023-05-08T10:56:04.379Z,35.18
2023-05-08T10:58:33.569Z,35.75
2023-05-08T11:01:00.679Z,38.53
2023-05-08T11:03:32.636Z,37.31
2023-05-08T11:06:01.593Z,35.71
2023-05-08T11:08:30.323Z,36.38
2023-05-08T11:11:32.083Z,35.61
2023-05-08T11:14:10.783Z,34.17
2023-05-08T11:16:56.546Z,35.66
2023-05-08T11:19:29.779Z,34.81
2023-05-08T11:22:20.281Z,36.29
2023-05-08T11:24:58.759Z,35.15
2023-05-08T11:27:46.988Z,35.13
2023-05-08T11:30:25.776Z,34.54
2023-05-08T11:32:59.750Z,34.45
2023-05-08T11:35:49.850Z,33.93
2023-05-08T11:38:19.842Z,34.88
2023-05-08T11:41:09.556Z,35.97
2023-05-08T11:44:14.929Z,33.69
2023-05-08T11:46:56.498Z,30.79
2023-05-08T11:49:29.550Z,33.19
2023-05-08T11:51:58.301Z,32.93
2023-05-08T11:54:29.451Z,32.97
2023-05-08T11:56:57.579Z,33.59
2023-05-08T11:59:31.687Z,32.42
2023-05-08T12:02:08.601Z,32.62
2023-05-08T12:04:44.568Z,33.23
2023-05-08T12:07:11.874Z,31.57
2023-05-08T12:09:39.118Z,31.05
2023-05-08T12:12:06.096Z,33.45
2023-05-08T12:14:35.290Z,30.38
2023-05-08T12:17:02.934Z,31.98
2023-05-08T12:19:33.098Z,31.65
2023-05-08T12:22:00.533Z,32.46
2023-05-08T12:24:27.668Z,32.19
2023-05-08T12:26:56.151Z,31.33
2023-05-08T12:29:23.705Z,31.15
2023-05-08T12:31:53.856Z,31.11
2023-05-08T12:34:21.619Z,31.25
2023-05-08T12:36:48.537Z,31.85
2023-05-08T12:39:17.544Z,32.81
2023-05-08T12:41:54.870Z,30.83
2023-05-08T12:44:26.541Z,29.63
2023-05-08T12:46:55.899Z,30.25
2023-05-08T12:49:28.729Z,29.50
2023-05-08T12:52:12.415Z,29.56
2023-05-08T12:54:41.295Z,29.08
2023-05-08T12:57:15.745Z,29.88
2023-05-08T12:59:44.050Z,29.38
2023-05-08T13:02:24.121Z,30.22
2023-05-08T13:04:56.157Z,29.40
2023-05-08T13:07:23.221Z,27.74
2023-05-08T13:10:01.081Z,28.35
2023-05-08T13:12:29.217Z,27.04
2023-05-08T13:14:56.386Z,27.13
2023-05-08T13:17:23.215Z,28.93
2023-05-08T13:19:50.472Z,29.41
2023-05-08T13:22:17.303Z,28.79
2023-05-08T13:24:44.508Z,28.38
2023-05-08T13:27:11.387Z,26.76
2023-05-08T13:29:38.574Z,26.24
2023-05-08T13:32:05.547Z,26.93
2023-05-08T13:34:32.644Z,27.25
2023-05-08T13:36:59.553Z,26.93
2023-05-08T13:39:26.670Z,26.53
2023-05-08T13:41:53.511Z,25.87
2023-05-08T13:44:20.621Z,26.66
2023-05-08T13:46:48.561Z,25.84
2023-05-08T13:49:15.693Z,25.46
2023-05-08T13:51:43.918Z,25.55
2023-05-08T13:54:14.160Z,25.50
2023-05-08T13:56:43.915Z,25.74
2023-05-08T13:59:12.336Z,25.21
2023-05-08T14:01:39.214Z,25.67
2023-05-08T14:04:07.013Z,25.33
2023-05-08T14:06:36.614Z,24.05
2023-05-08T14:09:03.790Z,23.11
2023-05-08T14:11:30.537Z,22.71
2023-05-08T14:13:57.881Z,22.12
2023-05-08T14:16:24.818Z,20.95
2023-05-08T14:18:52.012Z,20.87
2023-05-08T14:21:18.862Z,20.61
2023-05-08T14:23:45.998Z,22.28
2023-05-08T14:26:13.235Z,22.38
2023-05-08T14:28:40.612Z,23.13
2023-05-08T14:31:07.580Z,22.72
2023-05-08T14:33:41.596Z,19.06
2023-05-08T14:36:10.015Z,20.14
2023-05-08T14:38:37.171Z,19.82
2023-05-08T14:41:04.918Z,20.53
2023-05-08T14:43:32.252Z,19.95
2023-05-08T14:46:02.027Z,18.52
2023-05-08T14:48:29.481Z,17.91
2023-05-08T14:50:57.559Z,17.39
2023-05-08T14:53:24.983Z,16.68
2023-05-08T14:55:52.141Z,16.37
2023-05-08T14:58:19.341Z,17.30
2023-05-08T15:00:46.791Z,17.20
2023-05-08T15:03:16.124Z,17.14
2023-05-08T15:05:47.220Z,16.79
2023-05-08T15:08:14.468Z,16.76
2023-05-08T15:10:41.353Z,16.43
2023-05-08T15:13:08.913Z,16.25
2023-05-08T15:15:35.887Z,16.61
2023-05-08T15:18:03.323Z,17.00
2023-05-08T15:20:30.209Z,18.09
2023-05-08T15:22:57.370Z,17.81
2023-05-08T15:25:25.810Z,18.53
2023-05-08T15:27:53.027Z,17.64
2023-05-08T15:30:20.642Z,18.03
2023-05-08T15:32:48.201Z,18.60
2023-05-08T15:35:15.208Z,18.34
2023-05-08T15:37:42.577Z,17.57
2023-05-08T15:40:10.072Z,18.33
2023-05-08T15:42:37.232Z,19.84
2023-05-08T15:45:04.277Z,21.36
2023-05-08T15:47:31.457Z,24.21
2023-05-08T15:49:58.346Z,26.58
2023-05-08T15:52:25.598Z,27.17
2023-05-08T15:54:52.452Z,29.54
2023-05-08T15:57:19.667Z,30.72
2023-05-08T15:59:49.235Z,31.05
2023-05-08T16:02:16.376Z,32.70
2023-05-08T16:04:43.529Z,33.09
2023-05-08T16:07:10.611Z,33.17
2023-05-08T16:09:37.445Z,33.35
2023-05-08T16:12:05.049Z,34.44
2023-05-08T16:14:31.967Z,36.13
2023-05-08T16:16:59.066Z,36.95
2023-05-08T16:19:25.869Z,37.76
2023-05-08T16:21:53.415Z,38.44
2023-05-08T16:24:20.880Z,38.26
2023-05-08T16:26:55.718Z,38.61
2023-05-08T16:29:23.544Z,38.44
2023-05-08T16:31:51.143Z,38.86
2023-05-08T16:34:18.042Z,38.81
2023-05-08T16:36:45.706Z,37.80
2023-05-08T16:39:12.535Z,37.57
2023-05-08T16:41:39.668Z,37.48
2023-05-08T16:44:09.598Z,36.51
2023-05-08T16:46:39.823Z,34.34
2023-05-08T16:49:06.983Z,32.00
2023-05-08T16:51:34.057Z,30.50
2023-05-08T16:54:00.949Z,29.98
2023-05-08T16:56:30.969Z,29.16
2023-05-08T16:58:58.390Z,28.84
2023-05-08T17:01:25.551Z,28.48
2023-05-08T17:03:52.807Z,27.10
2023-05-08T17:06:20.744Z,27.21
2023-05-08T17:08:47.549Z,28.09
2023-05-08T17:11:14.900Z,29.15
2023-05-08T17:13:43.169Z,30.33
2023-05-08T17:16:10.316Z,32.00
2023-05-08T17:18:37.218Z,33.30
2023-05-08T17:21:04.481Z,34.89
2023-05-08T17:23:33.720Z,36.41
2023-05-08T17:26:01.142Z,38.46
2023-05-08T17:28:27.935Z,39.51
2023-05-08T17:30:55.123Z,40.21
2023-05-08T17:33:22.025Z,40.51
2023-05-08T17:35:49.107Z,41.09
2023-05-08T17:38:17.090Z,41.95
2023-05-08T17:40:44.782Z,42.55
2023-05-08T17:43:12.059Z,42.93
2023-05-08T17:45:39.153Z,43.08
2023-05-08T17:48:06.170Z,43.54
2023-05-08T17:50:35.266Z,43.75
2023-05-08T17:53:02.098Z,43.78
2023-05-08T17:55:31.736Z,44.36
2023-05-08T17:57:58.579Z,44.18
2023-05-08T18:00:25.752Z,44.73
2023-05-08T18:02:53.011Z,45.25
2023-05-08T18:05:20.378Z,46.27
2023-05-08T18:07:50.262Z,46.36
2023-05-08T18:10:17.397Z,47.34
2023-05-08T18:12:44.228Z,47.48
2023-05-08T18:15:14.689Z,47.80
2023-05-08T18:17:44.255Z,48.00
2023-05-08T18:20:11.810Z,48.35
2023-05-08T18:22:39.030Z,48.43
2023-05-08T18:25:06.390Z,49.28
2023-05-08T18:27:34.511Z,49.09
2023-05-08T18:30:01.698Z,49.35
2023-05-08T18:32:29.148Z,49.59
2023-05-08T18:34:57.246Z,49.46
2023-05-08T18:37:24.259Z,49.99
2023-05-08T18:39:51.552Z,49.94
2023-05-08T18:42:18.488Z,50.12
2023-05-08T18:44:47.149Z,50.65
2023-05-08T18:47:14.023Z,50.73
2023-05-08T18:49:41.371Z,50.61
2023-05-08T18:52:08.350Z,50.65
2023-05-08T18:54:38.549Z,51.29
2023-05-08T18:57:05.461Z,51.51
2023-05-08T18:59:35.137Z,51.33
2023-05-08T19:02:02.194Z,51.24
2023-05-08T19:04:31.880Z,51.44
2023-05-08T19:06:58.835Z,52.07
2023-05-08T19:09:25.948Z,51.73
2023-05-08T19:11:53.756Z,52.51
2023-05-08T19:14:20.892Z,52.08
2023-05-08T19:16:47.755Z,52.57
2023-05-08T19:19:15.028Z,53.21
2023-05-08T19:21:41.821Z,53.95
2023-05-08T19:24:08.999Z,53.34
2023-05-08T19:26:35.775Z,53.92
2023-05-08T19:29:03.496Z,53.99
2023-05-08T19:31:30.371Z,54.62
2023-05-08T19:33:57.637Z,54.51
2023-05-08T19:36:24.458Z,54.95
2023-05-08T19:38:51.569Z,54.60
2023-05-08T19:41:18.418Z,54.66
2023-05-08T19:43:45.588Z,54.62
2023-05-08T19:46:12.368Z,54.14
2023-05-08T19:48:42.342Z,54.98
2023-05-08T19:51:09.675Z,55.35
2023-05-08T19:53:42.025Z,55.06
2023-05-08T19:56:09.190Z,55.39
2023-05-08T19:58:38.464Z,56.86
2023-05-08T20:01:05.340Z,57.16
2023-05-08T20:03:35.428Z,57.68
2023-05-08T20:06:02.357Z,56.50
2023-05-08T20:08:30.179Z,57.74
2023-05-08T20:10:57.888Z,58.29
2023-05-08T20:13:25.083Z,57.69
2023-05-08T20:15:53.891Z,57.67
2023-05-08T20:18:24.555Z,57.90
2023-05-08T20:20:51.989Z,57.69
2023-05-08T20:23:19.125Z,58.28
2023-05-08T20:25:47.713Z,58.04
2023-05-08T20:28:15.452Z,58.42
2023-05-08T20:30:44.628Z,58.63
2023-05-08T20:33:11.721Z,58.95
2023-05-08T20:35:38.558Z,58.39
2023-05-08T20:38:05.863Z,58.26
2023-05-08T20:40:33.708Z,58.39
2023-05-08T20:43:00.776Z,59.50
2023-05-08T20:45:27.720Z,59.33
2023-05-08T20:47:55.508Z,60.45
2023-05-08T20:50:22.490Z,61.09
2023-05-08T20:52:49.919Z,60.03
2023-05-08T20:55:17.106Z,60.23
2023-05-08T20:57:44.236Z,60.34
2023-05-08T21:00:11.719Z,61.20
2023-05-08T21:02:41.706Z,60.67
2023-05-08T21:05:08.977Z,60.84
2023-05-08T21:07:36.488Z,61.73
2023-05-08T21:10:03.498Z,61.31
2023-05-08T21:12:30.630Z,62.00
2023-05-08T21:15:00.671Z,61.30
2023-05-08T21:17:27.867Z,62.82
2023-05-08T21:19:56.015Z,62.55
2023-05-08T21:22:26.007Z,63.01
2023-05-08T21:24:53.298Z,64.80
2023-05-08T21:27:22.455Z,63.47
2023-05-08T21:29:50.250Z,64.90
2023-05-08T21:32:17.350Z,65.65
2023-05-08T21:34:44.543Z,64.39
2023-05-08T21:37:11.795Z,66.12
2023-05-08T21:39:38.812Z,65.92
2023-05-08T21:42:06.152Z,65.42
2023-05-08T21:44:33.220Z,65.94
2023-05-08T21:47:00.277Z,65.31
2023-05-08T21:49:27.059Z,65.35
2023-05-08T21:51:54.180Z,65.84
2023-05-08T21:54:24.337Z,64.77
2023-05-08T21:56:51.474Z,64.62
2023-05-08T21:59:19.331Z,65.41
2023-05-08T22:01:46.813Z,65.49
2023-05-08T22:04:13.746Z,65.68
2023-05-08T22:06:43.199Z,65.16
2023-05-08T22:09:10.161Z,64.61
2023-05-08T22:11:40.322Z,64.50
2023-05-08T22:14:07.081Z,65.84
2023-05-08T22:16:35.098Z,65.71
2023-05-08T22:19:01.998Z,65.87
2023-05-08T22:21:30.187Z,66.42
2023-05-08T22:23:57.224Z,64.89
2023-05-08T22:26:24.299Z,65.31
2023-05-08T22:28:51.216Z,65.28
2023-05-08T22:31:18.501Z,65.34
2023-05-08T22:33:46.937Z,66.86
2023-05-08T22:36:14.009Z,66.78
2023-05-08T22:38:40.901Z,66.47
2023-05-08T22:41:08.799Z,66.91
2023-05-08T22:43:38.776Z,66.76
2023-05-08T22:46:06.210Z,66.64
2023-05-08T22:48:33.760Z,66.23
2023-05-08T22:51:00.850Z,66.79
2023-05-08T22:53:30.673Z,66.72
2023-05-08T22:55:57.834Z,68.08
2023-05-08T22:58:27.190Z,67.85
2023-05-08T23:00:54.306Z,68.21
2023-05-08T23:03:21.130Z,67.19
2023-05-08T23:05:48.881Z,67.68
2023-05-08T23:08:15.754Z,67.59
2023-05-08T23:10:42.806Z,67.22
2023-05-08T23:13:09.649Z,68.01
2023-05-08T23:15:37.234Z,68.51
2023-05-08T23:18:04.317Z,69.44
2023-05-08T23:20:34.156Z,68.86
2023-05-08T23:23:01.002Z,68.74
2023-05-08T23:25:28.178Z,67.72
2023-05-08T23:27:56.730Z,67.83
2023-05-08T23:30:23.838Z,68.05
2023-05-08T23:32:50.864Z,68.28
2023-05-08T23:35:18.069Z,67.81
2023-05-08T23:37:44.924Z,68.22
2023-05-08T23:40:12.369Z,68.36
2023-05-08T23:42:39.772Z,68.03
2023-05-08T23:45:10.169Z,68.15
2023-05-08T23:47:37.132Z,67.90
2023-05-08T23:50:04.667Z,67.58
2023-05-08T23:52:31.469Z,68.34
2023-05-08T23:54:58.815Z,69.08
2023-05-08T23:57:25.702Z,70.02
2023-05-08T23:59:54.829Z,69.10
